Erving, Massachusetts
Current Conditions -  °F | °C
As of 1:52 AM on Thursday 27 Nov 2014 (Local Time) from KAFN Reporting Station
Light Snow Light Snow  
Wind Chill: 23°   Ceiling: NA
Heat Index: 30°   Visibility: 3mi
Dew Point: 28°   Wind: 7mph
Humidity: 92%   Direction: NA
Pressure: 29.75"   Gusts: NA
Location:  42.6°N, 72.4°W
Report Text: KAFN 270652Z AUTO VRB06KT 3SM -SN BR M01/M02 A2975 RMK AO2 SLP090 P0002 T10111022 $
Loading
Personal Weather Stations






























Interactive Weather Map New forecast layout! Learn more

10-Day Weather Forecast

Advertisements
Track Severe Weather on mobile